Time;durP1;ratioP1;P1;durP2;ratioP2;P2;SDS_P1;SDS_P2;PMS_P1;PMS_P2;Temp;Humidity;BMP_temperature;BMP_pressure;BME280_temperature;BME280_humidity;BME280_pressure;Samples;Min_cycle;Max_cycle;Signal;HPM_P1;HPM_P2
2022/01/04 00:00:44;;;;;;;26.35;4.95;;;7.80;99.90;;;;;;5017854;28;20143;-63
2022/01/04 00:03:10;;;;;;;26.02;4.97;;;7.80;99.90;;;;;;5034705;28;20041;-63
2022/01/04 00:05:37;;;;;;;30.98;5.18;;;7.80;99.90;;;;;;5012724;28;20564;-63
2022/01/04 00:08:07;;;;;;;34.63;5.38;;;7.80;99.90;;;;;;5007829;28;20088;-63
2022/01/04 00:10:33;;;;;;;34.22;6.32;;;7.80;99.90;;;;;;5006921;28;20443;-63
2022/01/04 00:15:44;;;;;;;27.63;5.13;;;7.80;99.90;;;;;;5001800;28;20396;-64
2022/01/04 00:18:10;;;;;;;20.52;4.60;;;7.80;99.90;;;;;;5006374;28;20432;-63
2022/01/04 00:20:36;;;;;;;27.42;4.63;;;7.90;99.90;;;;;;4995231;28;20046;-65
2022/01/04 00:23:03;;;;;;;23.75;4.75;;;7.90;99.90;;;;;;5012760;28;20068;-65
2022/01/04 00:25:28;;;;;;;21.17;5.03;;;7.90;99.90;;;;;;5002304;28;20858;-65
2022/01/04 00:27:54;;;;;;;22.25;4.05;;;7.90;99.90;;;;;;4992020;28;20048;-65
2022/01/04 00:30:20;;;;;;;27.20;4.30;;;7.90;99.90;;;;;;4984507;28;20450;-65
2022/01/04 00:32:46;;;;;;;21.27;4.43;;;7.90;99.90;;;;;;5003299;28;20557;-65
2022/01/04 00:35:11;;;;;;;23.25;4.43;;;7.90;99.90;;;;;;5008695;28;20404;-66
2022/01/04 00:37:38;;;;;;;23.55;4.30;;;7.90;99.90;;;;;;4997410;28;20156;-66
2022/01/04 00:40:04;;;;;;;33.75;5.03;;;7.90;99.90;;;;;;5015631;23;20480;-57
2022/01/04 00:42:30;;;;;;;30.88;6.43;;;7.90;99.90;;;;;;4999782;28;20056;-58
2022/01/04 00:44:56;;;;;;;33.40;6.95;;;7.90;99.90;;;;;;5005720;28;20050;-59
2022/01/04 00:47:27;;;;;;;23.60;4.93;;;7.90;99.90;;;;;;4979998;28;20850;-57
2022/01/04 00:49:53;;;;;;;37.17;5.70;;;7.90;99.90;;;;;;5021384;28;20038;-59
2022/01/04 00:52:19;;;;;;;34.78;5.68;;;8.00;99.90;;;;;;4994067;28;20042;-59
2022/01/04 00:54:46;;;;;;;37.53;7.07;;;8.00;99.90;;;;;;5001410;28;20045;-59
2022/01/04 00:57:12;;;;;;;31.63;5.43;;;8.00;99.90;;;;;;4988950;28;20045;-58
2022/01/04 00:59:38;;;;;;;32.65;5.80;;;8.00;99.90;;;;;;4998105;28;20135;-58
2022/01/04 01:02:04;;;;;;;20.60;5.38;;;8.00;99.90;;;;;;5009986;28;20502;-58
2022/01/04 01:04:30;;;;;;;35.20;8.38;;;8.00;99.90;;;;;;4997420;28;20097;-58
2022/01/04 01:06:56;;;;;;;23.25;4.70;;;8.00;99.90;;;;;;4998729;28;20037;-59
2022/01/04 01:09:25;;;;;;;21.65;5.47;;;8.00;99.90;;;;;;4989304;28;20116;-59
2022/01/04 01:11:50;;;;;;;26.25;5.68;;;8.00;99.90;;;;;;4996228;28;20125;-58
2022/01/04 01:14:16;;;;;;;29.80;6.20;;;8.10;99.90;;;;;;4995450;28;20045;-59
2022/01/04 01:16:42;;;;;;;24.30;5.63;;;8.00;99.90;;;;;;5003452;28;20507;-57
2022/01/04 01:19:07;;;;;;;27.15;5.88;;;7.90;99.90;;;;;;4999606;28;20060;-58
2022/01/04 01:21:33;;;;;;;32.22;5.22;;;8.00;99.90;;;;;;5013889;28;20159;-58
2022/01/04 01:23:59;;;;;;;24.58;5.65;;;8.00;99.90;;;;;;4994421;28;20053;-58
2022/01/04 01:26:25;;;;;;;30.13;5.35;;;8.00;99.90;;;;;;4980823;28;20049;-58
2022/01/04 01:28:51;;;;;;;41.67;6.78;;;8.00;99.90;;;;;;5016683;28;20045;-58
2022/01/04 01:31:17;;;;;;;28.75;5.10;;;8.00;99.90;;;;;;5001623;28;20436;-57
2022/01/04 01:33:43;;;;;;;27.95;5.45;;;8.00;99.90;;;;;;4981753;28;20123;-57
2022/01/04 01:36:09;;;;;;;22.95;5.57;;;8.00;99.90;;;;;;4995939;28;20040;-59
2022/01/04 01:38:34;;;;;;;37.05;7.60;;;8.00;99.90;;;;;;4984433;28;20049;-56
2022/01/04 01:41:00;;;;;;;37.03;7.07;;;8.00;99.90;;;;;;5013928;28;20068;-58
2022/01/04 01:43:29;;;;;;;34.00;6.90;;;8.00;99.90;;;;;;4995423;28;20049;-59
2022/01/04 01:45:55;;;;;;;27.42;6.65;;;8.00;99.90;;;;;;5017766;28;20045;-59
2022/01/04 01:48:21;;;;;;;25.00;6.38;;;8.10;99.90;;;;;;4981219;28;20038;-58
2022/01/04 01:50:48;;;;;;;37.92;7.47;;;8.10;99.90;;;;;;5016733;28;20060;-59
2022/01/04 01:53:14;;;;;;;31.58;6.80;;;8.10;99.90;;;;;;4991392;28;20083;-59
2022/01/04 01:55:40;;;;;;;34.05;6.57;;;8.10;99.90;;;;;;4997685;28;20085;-58
2022/01/04 01:58:06;;;;;;;50.70;10.45;;;8.10;99.90;;;;;;4987778;28;20075;-59
2022/01/04 02:00:32;;;;;;;36.83;9.30;;;7.80;99.90;;;;;;5002466;28;20077;-58
2022/01/04 02:02:57;;;;;;;27.42;7.55;;;8.10;99.90;;;;;;5006887;28;20046;-59
2022/01/04 02:05:23;;;;;;;34.10;7.00;;;8.00;99.90;;;;;;4995499;28;20374;-58
2022/01/04 02:07:50;;;;;;;43.75;8.57;;;8.10;99.90;;;;;;4976736;28;20110;-57
2022/01/04 02:10:16;;;;;;;39.42;7.65;;;8.00;99.90;;;;;;5016922;28;20046;-58
2022/01/04 02:12:46;;;;;;;32.55;8.65;;;8.10;99.90;;;;;;4997270;28;20046;-57
2022/01/04 02:15:16;;;;;;;32.08;8.05;;;8.10;99.90;;;;;;5018710;28;20084;-58
2022/01/04 02:17:42;;;;;;;34.15;7.47;;;8.00;99.90;;;;;;5012075;28;20072;-59
2022/01/04 02:20:08;;;;;;;37.78;8.18;;;8.00;99.90;;;;;;4994953;28;20045;-57
2022/01/04 02:22:35;;;;;;;30.20;8.43;;;8.00;99.90;;;;;;5020599;28;20385;-58
2022/01/04 02:25:01;;;;;;;36.40;10.40;;;8.00;99.90;;;;;;5011495;28;20554;-58
2022/01/04 02:27:27;;;;;;;28.75;8.35;;;8.00;99.90;;;;;;5002303;28;20144;-58
2022/01/04 02:29:53;;;;;;;38.72;10.27;;;8.00;99.90;;;;;;4996708;28;20030;-58
2022/01/04 02:32:19;;;;;;;35.47;9.57;;;8.00;99.90;;;;;;5011580;28;20515;-58
2022/01/04 02:34:49;;;;;;;36.85;10.05;;;8.00;99.90;;;;;;5001103;28;20128;-57
2022/01/04 02:37:24;;;;;;;43.58;9.90;;;8.10;99.90;;;;;;5014067;28;20416;-58
2022/01/04 02:39:50;;;;;;;42.63;11.60;;;8.00;99.90;;;;;;5002623;28;20088;-59
2022/01/04 02:42:17;;;;;;;40.75;9.40;;;8.00;99.90;;;;;;4994931;28;20041;-58
2022/01/04 02:44:43;;;;;;;39.63;10.02;;;8.00;99.90;;;;;;4999719;28;20055;-58
2022/01/04 02:47:09;;;;;;;37.70;10.40;;;8.00;99.90;;;;;;5003027;28;20728;-59
2022/01/04 02:49:35;;;;;;;40.42;10.93;;;8.00;99.90;;;;;;4979883;28;20033;-59
2022/01/04 02:52:01;;;;;;;31.55;9.82;;;8.00;99.90;;;;;;4993307;28;20049;-59
2022/01/04 02:54:26;;;;;;;49.92;11.23;;;8.00;99.90;;;;;;4991528;28;20041;-59
2022/01/04 02:56:52;;;;;;;38.20;11.35;;;8.00;99.90;;;;;;5002553;28;20131;-59
2022/01/04 02:59:18;;;;;;;35.30;10.13;;;8.00;99.90;;;;;;4989571;28;20049;-59
2022/01/04 03:01:44;;;;;;;39.85;10.73;;;8.00;99.90;;;;;;4991059;28;20037;-59
2022/01/04 03:04:09;;;;;;;38.42;9.27;;;8.00;99.90;;;;;;4998307;28;20042;-59
2022/01/04 03:06:36;;;;;;;34.55;10.25;;;8.10;99.90;;;;;;4997878;28;20163;-57
2022/01/04 03:09:04;;;;;;;33.45;9.30;;;8.00;99.90;;;;;;5010299;28;20432;-59
2022/01/04 03:11:30;;;;;;;37.47;8.90;;;8.00;99.90;;;;;;5009797;28;20046;-59
2022/01/04 03:13:56;;;;;;;40.67;9.90;;;8.00;99.90;;;;;;4993035;28;20048;-57
2022/01/04 03:16:22;;;;;;;34.60;10.02;;;8.00;99.90;;;;;;5013452;28;20045;-59
2022/01/04 03:19:03;;;;;;;39.05;9.13;;;8.00;99.90;;;;;;4988047;28;20701;-59
2022/01/04 03:21:30;;;;;;;36.17;8.25;;;8.10;99.90;;;;;;4988302;28;20038;-57
2022/01/04 03:23:56;;;;;;;38.28;9.25;;;8.10;99.90;;;;;;4994339;28;20073;-59
2022/01/04 03:26:22;;;;;;;37.00;8.95;;;8.10;99.90;;;;;;5019475;28;20046;-59
2022/01/04 03:28:48;;;;;;;37.65;9.18;;;8.10;99.90;;;;;;4990664;28;20040;-58
2022/01/04 03:31:14;;;;;;;39.35;8.57;;;8.10;99.90;;;;;;4990979;28;20046;-57
2022/01/04 03:33:40;;;;;;;45.42;8.88;;;8.10;99.90;;;;;;5001513;28;20087;-57
2022/01/04 03:36:06;;;;;;;38.30;9.13;;;8.00;99.90;;;;;;5019000;28;20057;-59
2022/01/04 03:38:32;;;;;;;42.45;11.88;;;8.00;99.90;;;;;;4996097;28;20480;-58
2022/01/04 03:40:58;;;;;;;35.70;9.57;;;8.00;99.90;;;;;;5014050;28;20148;-59
2022/01/04 03:43:25;;;;;;;36.28;8.57;;;8.10;99.90;;;;;;5011842;28;20564;-59
2022/01/04 03:45:50;;;;;;;35.05;9.48;;;8.00;99.90;;;;;;4994792;28;20440;-60
2022/01/04 03:48:16;;;;;;;33.05;8.43;;;8.00;99.90;;;;;;5012437;28;20042;-57
2022/01/04 03:50:43;;;;;;;38.25;10.57;;;8.00;99.90;;;;;;5000773;28;20033;-59
2022/01/04 03:53:09;;;;;;;29.88;8.07;;;8.00;99.90;;;;;;4999202;28;20041;-59
2022/01/04 03:55:35;;;;;;;34.33;7.90;;;8.00;99.90;;;;;;5003868;28;21007;-59
2022/01/04 03:58:01;;;;;;;36.08;8.50;;;8.00;99.90;;;;;;4994058;28;20074;-59
2022/01/04 04:00:27;;;;;;;33.33;8.05;;;8.00;99.90;;;;;;5011821;28;20029;-58
2022/01/04 04:02:53;;;;;;;35.55;8.77;;;8.10;99.90;;;;;;4976361;28;20251;-59
2022/01/04 04:05:19;;;;;;;31.33;7.03;;;8.00;99.90;;;;;;5014609;28;20045;-59
2022/01/04 04:07:45;;;;;;;41.22;7.32;;;8.00;99.90;;;;;;5002031;28;20041;-59
2022/01/04 04:10:11;;;;;;;31.13;7.40;;;8.10;99.90;;;;;;5011920;28;20037;-59
2022/01/04 04:12:37;;;;;;;36.15;8.48;;;8.10;99.90;;;;;;5023612;28;20084;-59
2022/01/04 04:15:07;;;;;;;31.65;7.18;;;8.00;99.90;;;;;;5017715;28;20117;-58
2022/01/04 04:17:33;;;;;;;37.47;7.07;;;8.00;99.90;;;;;;5019124;28;20439;-59
2022/01/04 04:19:59;;;;;;;36.35;7.18;;;8.10;99.90;;;;;;4998969;28;20424;-57
2022/01/04 04:22:25;;;;;;;37.60;8.10;;;8.10;99.90;;;;;;5010670;28;20049;-59
2022/01/04 04:24:51;;;;;;;30.73;7.15;;;8.10;99.90;;;;;;4988063;28;20041;-57
2022/01/04 04:27:17;;;;;;;32.65;8.45;;;8.10;99.90;;;;;;4993812;28;20145;-59
2022/01/04 04:29:43;;;;;;;39.17;7.00;;;8.10;99.90;;;;;;5006083;28;20037;-60
2022/01/04 04:32:10;;;;;;;37.63;7.28;;;8.10;99.90;;;;;;4980396;28;20045;-59
2022/01/04 04:34:37;;;;;;;32.40;7.72;;;8.10;99.90;;;;;;5001811;28;20038;-58
2022/01/04 04:37:03;;;;;;;35.83;9.00;;;8.10;99.90;;;;;;5001279;28;20042;-57
2022/01/04 04:39:29;;;;;;;31.77;6.82;;;8.10;99.90;;;;;;4999783;28;22290;-59
2022/01/04 04:41:55;;;;;;;35.33;8.88;;;8.10;99.90;;;;;;5009518;28;21008;-59
2022/01/04 04:44:20;;;;;;;33.75;8.23;;;8.10;99.90;;;;;;5010775;28;20037;-58
2022/01/04 04:46:46;;;;;;;29.95;7.53;;;8.10;99.90;;;;;;5003016;28;20049;-59
2022/01/04 04:49:13;;;;;;;37.05;7.70;;;8.10;99.90;;;;;;4996260;28;20072;-58
2022/01/04 04:51:38;;;;;;;40.35;9.32;;;8.10;99.90;;;;;;5001056;28;20505;-57
2022/01/04 04:54:04;;;;;;;33.58;7.75;;;8.10;99.90;;;;;;5020519;28;20044;-59
2022/01/04 04:56:30;;;;;;;29.60;8.25;;;8.10;99.90;;;;;;4996425;28;20073;-58
2022/01/04 04:58:56;;;;;;;38.97;7.88;;;8.10;99.90;;;;;;4997741;28;20488;-59
2022/01/04 05:01:22;;;;;;;34.83;9.13;;;8.10;99.90;;;;;;4997982;28;20076;-59
2022/01/04 05:03:51;;;;;;;35.50;7.07;;;8.10;99.90;;;;;;4998718;28;20073;-57
2022/01/04 05:06:17;;;;;;;28.63;7.32;;;8.20;99.90;;;;;;5001089;28;20531;-59
2022/01/04 05:08:43;;;;;;;36.67;9.68;;;8.20;99.90;;;;;;5013554;28;20050;-59
2022/01/04 05:11:09;;;;;;;34.30;8.05;;;8.20;99.90;;;;;;5000215;28;20745;-59
2022/01/04 05:13:34;;;;;;;36.55;9.02;;;8.10;99.90;;;;;;4993345;28;20080;-59
2022/01/04 05:16:00;;;;;;;31.17;8.63;;;8.20;99.90;;;;;;5024766;28;20041;-59
2022/01/04 05:18:26;;;;;;;32.38;8.40;;;8.20;99.90;;;;;;4993703;28;20042;-60
2022/01/04 05:20:52;;;;;;;34.15;9.45;;;8.20;99.90;;;;;;5003941;28;20212;-58
2022/01/04 05:23:17;;;;;;;31.75;9.23;;;8.20;99.90;;;;;;4982765;28;20072;-58
2022/01/04 05:25:43;;;;;;;39.28;10.00;;;8.20;99.90;;;;;;5014586;28;20040;-57
2022/01/04 05:28:09;;;;;;;30.10;8.98;;;8.20;99.90;;;;;;5010943;28;20034;-59
2022/01/04 05:30:35;;;;;;;38.35;9.05;;;8.10;99.90;;;;;;4996871;28;20047;-59
2022/01/04 05:33:00;;;;;;;34.70;9.45;;;8.20;99.90;;;;;;4993914;28;20124;-59
2022/01/04 05:35:27;;;;;;;37.17;8.88;;;8.20;99.90;;;;;;5003960;28;20041;-59
2022/01/04 05:37:53;;;;;;;33.90;9.50;;;8.20;99.90;;;;;;4992281;28;20232;-59
2022/01/04 05:40:18;;;;;;;42.08;10.00;;;8.20;99.90;;;;;;5023499;28;20125;-58
2022/01/04 05:42:44;;;;;;;36.10;8.50;;;8.20;99.90;;;;;;4996854;28;20152;-57
2022/01/04 05:45:10;;;;;;;28.60;7.00;;;8.20;99.90;;;;;;4985524;28;20112;-57
2022/01/04 05:47:36;;;;;;;33.50;8.25;;;8.10;99.90;;;;;;4993521;28;20045;-59
2022/01/04 05:50:02;;;;;;;29.70;7.07;;;8.20;99.90;;;;;;4989547;28;20041;-57
2022/01/04 05:52:28;;;;;;;26.83;7.10;;;8.20;99.90;;;;;;4987602;28;20037;-58
2022/01/04 05:54:54;;;;;;;34.08;7.55;;;8.20;99.90;;;;;;5009464;28;20037;-59
2022/01/04 05:57:19;;;;;;;34.10;7.85;;;8.20;99.90;;;;;;4996234;28;20053;-58
2022/01/04 05:59:45;;;;;;;38.75;8.25;;;8.20;99.90;;;;;;4994824;28;20390;-56
2022/01/04 06:02:11;;;;;;;33.35;8.27;;;8.20;99.90;;;;;;4970000;28;20053;-59
2022/01/04 06:04:37;;;;;;;34.88;9.00;;;8.20;99.90;;;;;;4991667;28;20052;-59
2022/01/04 06:07:02;;;;;;;34.42;8.60;;;8.20;99.90;;;;;;4996956;28;20080;-58
2022/01/04 06:09:39;;;;;;;37.72;8.32;;;8.20;99.90;;;;;;4996130;28;20485;-58
2022/01/04 06:14:50;;;;;;;28.73;8.57;;;8.20;99.90;;;;;;5012313;28;20088;-59
2022/01/04 06:14:52;;;;;;;28.67;7.10;;;8.20;99.90;;;;;;5000630;28;20836;-60
2022/01/04 06:17:19;;;;;;;30.40;7.30;;;8.20;99.90;;;;;;4994285;28;20365;-59
2022/01/04 06:19:45;;;;;;;29.08;6.38;;;8.20;99.90;;;;;;4996714;28;20497;-58
2022/01/04 06:22:11;;;;;;;30.38;7.60;;;8.10;99.90;;;;;;4999354;28;20085;-58
2022/01/04 06:24:37;;;;;;;23.98;6.65;;;8.10;99.90;;;;;;4992874;28;20508;-58
2022/01/04 06:27:10;;;;;;;35.80;6.80;;;8.10;99.90;;;;;;4977581;28;21096;-58
2022/01/04 06:29:38;;;;;;;35.38;8.23;;;8.10;99.90;;;;;;4982460;28;20056;-59
2022/01/04 06:32:06;;;;;;;26.80;6.93;;;8.10;99.90;;;;;;4966585;28;20515;-59
2022/01/04 06:34:31;;;;;;;24.70;7.22;;;8.10;99.90;;;;;;5010295;28;20132;-57
2022/01/04 06:36:57;;;;;;;27.48;8.20;;;8.10;99.90;;;;;;4998948;28;20129;-57
2022/01/04 06:39:23;;;;;;;28.58;7.15;;;8.10;99.90;;;;;;4997917;28;20054;-59
2022/01/04 06:41:48;;;;;;;24.92;6.60;;;8.10;99.90;;;;;;4981693;28;20484;-59
2022/01/04 06:44:14;;;;;;;27.27;6.13;;;8.10;99.90;;;;;;4980162;28;20362;-58
2022/01/04 06:46:45;;;;;;;32.20;6.55;;;8.10;99.90;;;;;;4992512;28;20045;-58
2022/01/04 06:49:18;;;;;;;25.20;7.40;;;8.20;99.90;;;;;;5022445;28;20033;-58
2022/01/04 06:51:45;;;;;;;25.27;5.60;;;8.10;99.90;;;;;;4990914;28;20057;-59
2022/01/04 06:54:12;;;;;;;37.20;6.32;;;8.20;99.90;;;;;;5010301;28;20428;-58
2022/01/04 06:56:39;;;;;;;28.58;6.38;;;8.10;99.90;;;;;;5002285;28;20049;-58
2022/01/04 06:59:06;;;;;;;21.23;5.15;;;8.10;99.90;;;;;;4977592;28;20581;-59
2022/01/04 07:01:33;;;;;;;23.15;4.70;;;8.20;99.90;;;;;;4993389;28;20045;-60
2022/01/04 07:03:59;;;;;;;25.10;4.85;;;8.10;99.90;;;;;;4998919;28;20041;-59
2022/01/04 07:06:25;;;;;;;25.67;5.30;;;8.10;99.90;;;;;;4991669;28;20048;-60
2022/01/04 07:08:51;;;;;;;24.08;4.53;;;8.10;99.90;;;;;;5009928;28;20126;-60
2022/01/04 07:11:17;;;;;;;27.17;4.90;;;8.10;99.90;;;;;;4995506;28;20682;-60
2022/01/04 07:13:43;;;;;;;27.25;5.57;;;8.20;99.90;;;;;;4983456;23;20058;-61
2022/01/04 07:16:09;;;;;;;30.77;6.57;;;8.10;99.90;;;;;;4971287;28;20050;-61
2022/01/04 07:18:35;;;;;;;26.73;6.35;;;8.10;99.90;;;;;;4968037;28;20038;-61
2022/01/04 07:21:01;;;;;;;26.25;6.47;;;8.10;99.90;;;;;;4973980;28;20429;-61
2022/01/04 07:23:27;;;;;;;27.00;5.90;;;8.10;99.90;;;;;;4966515;28;20042;-62
2022/01/04 07:25:54;;;;;;;32.17;12.23;;;8.10;99.90;;;;;;4970874;28;20054;-60
2022/01/04 07:28:21;;;;;;;27.17;5.50;;;8.10;99.90;;;;;;4946432;28;20693;-58
2022/01/04 07:30:46;;;;;;;22.88;6.13;;;8.10;99.90;;;;;;4955906;28;20507;-61
2022/01/04 07:33:12;;;;;;;28.10;4.78;;;8.10;99.90;;;;;;4970135;28;20062;-61
2022/01/04 07:35:38;;;;;;;25.25;4.78;;;8.10;99.90;;;;;;4977882;28;20042;-61
2022/01/04 07:38:04;;;;;;;21.77;4.93;;;8.10;99.90;;;;;;4977829;28;20099;-62
2022/01/04 07:40:30;;;;;;;29.60;6.15;;;8.10;99.90;;;;;;4956728;28;20604;-61
2022/01/04 07:42:59;;;;;;;28.50;5.25;;;8.10;99.90;;;;;;4972567;28;20448;-62
2022/01/04 07:45:31;;;;;;;22.30;4.70;;;8.10;99.90;;;;;;4961722;28;20089;-61
2022/01/04 07:47:57;;;;;;;27.20;4.90;;;8.10;99.90;;;;;;4949801;28;20038;-62
2022/01/04 07:50:24;;;;;;;28.38;4.85;;;8.10;99.90;;;;;;4973042;28;20042;-60
2022/01/04 07:52:49;;;;;;;23.35;4.82;;;8.10;99.90;;;;;;4966704;28;20121;-64
2022/01/04 07:55:16;;;;;;;29.17;5.20;;;8.10;99.90;;;;;;4973237;28;20196;-60
2022/01/04 07:57:43;;;;;;;38.10;11.60;;;8.10;99.90;;;;;;4975780;28;20052;-60
2022/01/04 08:00:09;;;;;;;35.75;8.02;;;8.10;99.90;;;;;;4964273;28;20122;-61
2022/01/04 08:02:35;;;;;;;32.00;6.10;;;8.00;99.90;;;;;;4948884;28;20042;-61
2022/01/04 08:05:01;;;;;;;31.33;6.93;;;8.10;99.90;;;;;;4962273;28;20043;-63
2022/01/04 08:07:27;;;;;;;25.38;6.20;;;8.10;99.90;;;;;;4962985;28;20050;-64
2022/01/04 08:09:53;;;;;;;29.08;5.50;;;8.00;99.90;;;;;;4956290;28;20053;-61
2022/01/04 08:12:19;;;;;;;26.52;5.32;;;8.10;99.90;;;;;;4964995;28;20096;-61
2022/01/04 08:14:45;;;;;;;28.45;7.60;;;8.10;99.90;;;;;;4952227;28;20085;-61
2022/01/04 08:17:12;;;;;;;29.85;7.93;;;8.10;99.90;;;;;;4962811;28;20046;-63
2022/01/04 08:19:37;;;;;;;20.00;3.97;;;8.10;99.90;;;;;;4974566;28;20038;-61
2022/01/04 08:22:03;;;;;;;15.45;3.03;;;8.00;99.90;;;;;;4964231;28;20056;-61
2022/01/04 08:24:29;;;;;;;16.35;2.92;;;7.70;99.90;;;;;;4944167;28;20035;-62
2022/01/04 08:26:56;;;;;;;9.80;2.00;;;7.70;99.90;;;;;;4967536;28;20116;-62
2022/01/04 08:29:21;;;;;;;10.38;1.50;;;7.60;99.90;;;;;;4962147;28;20054;-60
2022/01/04 08:31:47;;;;;;;4.90;1.25;;;7.60;99.90;;;;;;4948646;28;20043;-61
2022/01/04 08:34:13;;;;;;;7.97;1.42;;;7.50;99.90;;;;;;4952966;28;20105;-59
2022/01/04 08:36:39;;;;;;;10.45;1.30;;;7.40;99.90;;;;;;4965413;28;20046;-60
2022/01/04 08:39:05;;;;;;;6.32;1.15;;;7.30;99.90;;;;;;4950746;28;20068;-59
2022/01/04 08:41:32;;;;;;;3.92;1.15;;;7.30;99.90;;;;;;4947460;28;20045;-60
2022/01/04 08:43:58;;;;;;;9.38;1.20;;;7.30;99.90;;;;;;4970468;28;20575;-58
2022/01/04 08:46:24;;;;;;;9.35;1.33;;;7.30;99.90;;;;;;4964374;28;20129;-59
2022/01/04 08:48:50;;;;;;;6.78;1.08;;;7.30;99.90;;;;;;4944651;28;20069;-59
2022/01/04 08:51:16;;;;;;;5.38;0.90;;;7.20;99.90;;;;;;4956904;28;20497;-58
2022/01/04 08:53:43;;;;;;;5.45;0.90;;;7.20;99.90;;;;;;4939155;28;20051;-58
2022/01/04 08:56:08;;;;;;;5.63;1.10;;;7.20;99.90;;;;;;4963334;28;20046;-58
2022/01/04 08:58:34;;;;;;;8.82;1.88;;;7.10;99.90;;;;;;4975498;28;20560;-58
2022/01/04 09:01:02;;;;;;;6.80;1.00;;;7.10;99.90;;;;;;4972535;28;20042;-61
2022/01/04 09:03:29;;;;;;;4.85;1.00;;;7.00;99.90;;;;;;4956472;28;20050;-61
2022/01/04 09:05:55;;;;;;;5.13;0.80;;;7.00;99.90;;;;;;4978797;28;20595;-61
2022/01/04 09:08:21;;;;;;;7.00;1.10;;;7.00;99.90;;;;;;4972956;28;20069;-62
2022/01/04 09:10:46;;;;;;;7.20;1.10;;;7.00;99.90;;;;;;4970266;28;20613;-60
2022/01/04 09:13:17;;;;;;;4.78;0.82;;;7.00;99.90;;;;;;4972221;28;20420;-60
2022/01/04 09:20:55;;;;;;;6.80;2.10;;;6.90;99.90;;;;;;4953739;28;20050;-60
2022/01/04 09:23:21;;;;;;;9.95;1.50;;;7.00;99.90;;;;;;4955307;28;20049;-59
2022/01/04 09:25:48;;;;;;;9.88;1.23;;;7.00;99.90;;;;;;4954877;28;20073;-59
2022/01/04 09:28:16;;;;;;;5.40;0.90;;;6.90;99.90;;;;;;4963526;28;20074;-59
2022/01/04 09:30:44;;;;;;;4.80;1.10;;;6.90;99.90;;;;;;4958429;28;20051;-60
2022/01/04 09:33:10;;;;;;;9.00;1.50;;;6.90;99.90;;;;;;4953942;28;20583;-60
2022/01/04 09:35:36;;;;;;;6.32;1.10;;;6.90;99.90;;;;;;4956893;28;20034;-60
2022/01/04 09:38:06;;;;;;;5.53;0.95;;;6.90;99.90;;;;;;4976135;28;20030;-59
2022/01/04 09:40:35;;;;;;;8.07;1.33;;;6.80;99.90;;;;;;4962795;28;20504;-60
2022/01/04 09:43:03;;;;;;;3.83;0.98;;;6.80;99.90;;;;;;4954402;28;20038;-60
2022/01/04 09:45:29;;;;;;;6.13;1.00;;;6.80;99.90;;;;;;4966826;28;20043;-60
2022/01/04 09:47:54;;;;;;;4.25;0.90;;;6.80;99.90;;;;;;4956093;28;20046;-59
2022/01/04 09:50:20;;;;;;;11.68;1.77;;;6.70;99.90;;;;;;4957921;28;20035;-59
2022/01/04 09:52:47;;;;;;;6.80;0.90;;;6.70;99.90;;;;;;4975201;28;20092;-59
2022/01/04 09:55:15;;;;;;;6.65;1.00;;;6.70;99.90;;;;;;4964097;28;20050;-59
2022/01/04 09:57:42;;;;;;;3.17;0.60;;;6.60;99.90;;;;;;4953245;28;20381;-59
2022/01/04 10:00:10;;;;;;;5.38;1.00;;;6.50;99.90;;;;;;4970325;28;21802;-59
2022/01/04 10:02:35;;;;;;;4.25;0.80;;;6.50;99.90;;;;;;4955725;28;20175;-60
2022/01/04 10:05:17;;;;;;;5.38;1.23;;;6.40;99.90;;;;;;4951570;28;20465;-61
2022/01/04 10:07:45;;;;;;;4.45;0.80;;;6.30;99.90;;;;;;4966409;28;20047;-60
2022/01/04 10:10:13;;;;;;;5.75;1.05;;;6.40;99.90;;;;;;4950340;28;20046;-61
2022/01/04 10:12:59;;;;;;;3.97;1.05;;;6.20;99.90;;;;;;4956001;28;20100;-58
2022/01/04 10:15:38;;;;;;;3.25;0.70;;;6.30;99.90;;;;;;4970390;28;20045;-59
2022/01/04 10:18:18;;;;;;;5.07;0.82;;;6.30;99.90;;;;;;4966705;28;20089;-58
2022/01/04 10:20:46;;;;;;;3.50;0.70;;;6.30;99.90;;;;;;4964123;28;20505;-60
2022/01/04 10:23:14;;;;;;;1.50;0.60;;;6.30;99.90;;;;;;4941948;28;20061;-59
2022/01/04 10:25:40;;;;;;;5.70;1.00;;;6.30;99.90;;;;;;4965438;28;20055;-58
2022/01/04 10:28:07;;;;;;;2.58;0.65;;;6.30;99.90;;;;;;4961811;28;20031;-58
2022/01/04 10:30:38;;;;;;;4.57;0.70;;;6.30;99.90;;;;;;4948472;28;20279;-58
2022/01/04 10:33:08;;;;;;;1.77;0.60;;;6.20;99.90;;;;;;4961409;28;20061;-58
2022/01/04 10:35:37;;;;;;;5.68;1.23;;;6.10;99.90;;;;;;4966327;28;21767;-59
2022/01/04 10:38:26;;;;;;;6.10;0.90;;;6.10;99.90;;;;;;4967049;28;20045;-61
2022/01/04 10:41:20;;;;;;;8.95;1.30;;;6.00;99.90;;;;;;4965546;28;20031;-60
2022/01/04 10:43:50;;;;;;;5.72;0.80;;;6.00;99.90;;;;;;4943991;28;20124;-59
2022/01/04 10:46:20;;;;;;;7.90;1.00;;;5.90;99.90;;;;;;4964497;28;20052;-60
2022/01/04 10:48:48;;;;;;;5.82;1.20;;;5.90;99.90;;;;;;4966315;28;20053;-60
2022/01/04 10:51:21;;;;;;;6.53;1.08;;;6.00;99.90;;;;;;4952333;28;20944;-60
2022/01/04 10:54:00;;;;;;;7.03;2.28;;;6.10;99.90;;;;;;4957112;28;20082;-59
2022/01/04 10:56:31;;;;;;;3.50;0.77;;;6.10;99.90;;;;;;4971745;28;20147;-59
2022/01/04 10:58:59;;;;;;;3.88;1.08;;;6.10;99.90;;;;;;4965578;28;20039;-60
2022/01/04 11:01:31;;;;;;;5.57;0.95;;;6.20;99.90;;;;;;4957943;28;20050;-59
2022/01/04 11:03:59;;;;;;;4.78;1.00;;;6.10;99.90;;;;;;4947271;28;20034;-60
2022/01/04 11:06:31;;;;;;;6.10;0.88;;;6.20;99.90;;;;;;4958378;28;20047;-59
2022/01/04 11:08:57;;;;;;;4.97;1.25;;;6.20;99.90;;;;;;4955176;28;20050;-60
2022/01/04 11:11:24;;;;;;;6.93;0.90;;;6.20;99.90;;;;;;4961919;28;20053;-59
2022/01/04 11:13:53;;;;;;;4.32;0.90;;;6.20;99.90;;;;;;4960742;28;20070;-58
2022/01/04 11:16:23;;;;;;;4.05;0.90;;;6.20;99.90;;;;;;4932668;28;20446;-59
2022/01/04 11:18:52;;;;;;;2.83;0.65;;;6.20;99.90;;;;;;4947168;28;20060;-58
2022/01/04 11:21:32;;;;;;;8.18;1.00;;;6.20;99.90;;;;;;4948325;28;20054;-57
2022/01/04 11:24:01;;;;;;;9.48;1.50;;;6.30;99.90;;;;;;4962338;28;20817;-58
2022/01/04 11:26:28;;;;;;;4.93;1.08;;;6.30;99.90;;;;;;4945891;28;20042;-58
2022/01/04 11:28:55;;;;;;;4.60;1.15;;;6.30;99.90;;;;;;4955181;28;20105;-59
2022/01/04 11:31:41;;;;;;;7.55;1.10;;;6.20;99.90;;;;;;4932503;28;20047;-60
2022/01/04 11:34:09;;;;;;;8.13;1.38;;;6.20;99.90;;;;;;4964945;28;20078;-58
2022/01/04 11:36:55;;;;;;;8.85;1.33;;;6.20;99.90;;;;;;4961169;28;20108;-59
2022/01/04 11:39:39;;;;;;;7.63;1.30;;;6.30;99.90;;;;;;4963374;28;20089;-60
2022/01/04 11:45:44;;;;;;;8.75;1.02;;;6.30;99.90;;;;;;4958829;28;20057;-57
2022/01/04 11:48:39;;;;;;;5.18;1.65;;;6.40;99.90;;;;;;4958471;28;20047;-60
2022/01/04 11:51:30;;;;;;;8.32;1.38;;;6.40;99.90;;;;;;4940604;28;22499;-59
2022/01/04 11:54:27;;;;;;;5.50;1.02;;;6.40;99.90;;;;;;4968552;28;20046;-60
2022/01/04 11:57:08;;;;;;;9.77;1.30;;;6.40;99.90;;;;;;4973944;28;20631;-59
2022/01/04 11:59:40;;;;;;;7.25;1.40;;;6.50;99.90;;;;;;4965651;28;20404;-61
2022/01/04 12:02:29;;;;;;;7.45;1.38;;;6.50;99.90;;;;;;4978151;28;20038;-60
2022/01/04 12:05:10;;;;;;;3.47;0.85;;;6.50;99.90;;;;;;4966934;28;20094;-58
2022/01/04 12:07:38;;;;;;;7.40;1.70;;;6.50;99.90;;;;;;4962737;28;20034;-58
2022/01/04 12:10:21;;;;;;;10.48;2.15;;;6.50;99.90;;;;;;4957930;28;20043;-58
2022/01/04 12:13:00;;;;;;;10.05;2.70;;;6.50;99.90;;;;;;4965604;28;20039;-59
2022/01/04 12:15:32;;;;;;;7.63;1.55;;;6.50;99.90;;;;;;4941923;28;20046;-58
2022/01/04 12:18:02;;;;;;;9.35;1.20;;;6.50;99.90;;;;;;4965702;28;20050;-57
2022/01/04 12:20:43;;;;;;;9.38;1.48;;;6.40;99.90;;;;;;4959002;28;20137;-58
2022/01/04 12:23:31;;;;;;;9.23;1.40;;;6.10;99.90;;;;;;4963580;28;20085;-58
2022/01/04 12:26:05;;;;;;;14.88;2.50;;;6.00;99.90;;;;;;4943367;28;20057;-59
2022/01/04 12:28:31;;;;;;;7.68;1.52;;;6.00;99.90;;;;;;4966347;28;20489;-60
2022/01/04 12:31:24;;;;;;;10.63;1.77;;;6.00;99.90;;;;;;4967303;28;20035;-60
2022/01/04 12:33:54;;;;;;;7.88;1.80;;;6.00;99.90;;;;;;4977525;28;20062;-60
2022/01/04 12:36:40;;;;;;;5.43;1.23;;;6.00;99.90;;;;;;4962582;28;20438;-58
2022/01/04 12:39:12;;;;;;;9.13;1.30;;;6.00;99.90;;;;;;4964659;28;20071;-61
2022/01/04 12:41:39;;;;;;;14.65;1.52;;;5.90;99.90;;;;;;4982115;28;20634;-60
2022/01/04 12:44:07;;;;;;;6.78;1.50;;;5.80;99.90;;;;;;4981325;28;20042;-59
2022/01/04 12:46:45;;;;;;;11.68;1.38;;;5.80;99.90;;;;;;4972833;28;20051;-59
2022/01/04 12:49:22;;;;;;;5.20;1.55;;;5.80;99.90;;;;;;4976532;28;20061;-61
2022/01/04 12:51:51;;;;;;;11.38;1.40;;;5.80;99.90;;;;;;4970352;28;20456;-59
2022/01/04 12:54:32;;;;;;;10.68;1.40;;;5.80;99.90;;;;;;4965770;28;20050;-60
2022/01/04 12:57:00;;;;;;;5.43;1.20;;;5.90;99.90;;;;;;4952637;28;20046;-61
2022/01/04 12:59:25;;;;;;;9.57;1.60;;;5.90;99.90;;;;;;4970485;28;20145;-59
2022/01/04 13:01:59;;;;;;;8.00;1.17;;;5.90;99.90;;;;;;4960670;28;20046;-59
2022/01/04 13:04:34;;;;;;;7.50;1.23;;;5.90;99.90;;;;;;4961092;28;20034;-58
2022/01/04 13:07:05;;;;;;;6.95;1.50;;;6.00;99.90;;;;;;4948166;28;20042;-60